sensor_id;sensor_type;location;lat;lon;timestamp;temperature;humidity
1830;DHT22;914;48.118;11.600;2023-03-11T00:01:05;5.10;80.00
1830;DHT22;914;48.118;11.600;2023-03-11T00:03:31;5.10;80.60
1830;DHT22;914;48.118;11.600;2023-03-11T00:06:00;4.90;80.80
1830;DHT22;914;48.118;11.600;2023-03-11T00:08:26;4.90;81.50
1830;DHT22;914;48.118;11.600;2023-03-11T00:10:54;5.20;79.60
1830;DHT22;914;48.118;11.600;2023-03-11T00:13:21;4.90;79.50
1830;DHT22;914;48.118;11.600;2023-03-11T00:15:49;4.70;78.50
1830;DHT22;914;48.118;11.600;2023-03-11T00:18:16;4.60;79.40
1830;DHT22;914;48.118;11.600;2023-03-11T00:20:44;5.10;78.60
1830;DHT22;914;48.118;11.600;2023-03-11T00:23:11;5.30;77.60
1830;DHT22;914;48.118;11.600;2023-03-11T00:25:38;5.20;76.30
1830;DHT22;914;48.118;11.600;2023-03-11T00:28:05;5.20;76.60
1830;DHT22;914;48.118;11.600;2023-03-11T00:30:32;4.90;76.10
1830;DHT22;914;48.118;11.600;2023-03-11T00:32:59;4.90;76.50
1830;DHT22;914;48.118;11.600;2023-03-11T00:35:27;4.80;77.00
1830;DHT22;914;48.118;11.600;2023-03-11T00:37:56;4.70;77.30
1830;DHT22;914;48.118;11.600;2023-03-11T00:40:24;4.80;77.30
1830;DHT22;914;48.118;11.600;2023-03-11T00:42:50;4.80;76.90
1830;DHT22;914;48.118;11.600;2023-03-11T00:45:16;4.70;76.60
1830;DHT22;914;48.118;11.600;2023-03-11T00:47:42;4.70;76.70
1830;DHT22;914;48.118;11.600;2023-03-11T00:50:09;4.60;77.30
1830;DHT22;914;48.118;11.600;2023-03-11T00:52:38;4.60;77.80
1830;DHT22;914;48.118;11.600;2023-03-11T00:55:05;4.50;78.30
1830;DHT22;914;48.118;11.600;2023-03-11T00:57:31;4.20;78.40
1830;DHT22;914;48.118;11.600;2023-03-11T00:59:58;4.20;78.80
1830;DHT22;914;48.118;11.600;2023-03-11T01:02:24;4.20;79.40
1830;DHT22;914;48.118;11.600;2023-03-11T01:04:54;4.60;77.70
1830;DHT22;914;48.118;11.600;2023-03-11T01:07:20;4.50;78.10
1830;DHT22;914;48.118;11.600;2023-03-11T01:09:46;4.60;77.80
1830;DHT22;914;48.118;11.600;2023-03-11T01:12:12;4.60;77.80
1830;DHT22;914;48.118;11.600;2023-03-11T01:14:37;4.80;77.40
1830;DHT22;914;48.118;11.600;2023-03-11T01:17:03;4.70;78.30
1830;DHT22;914;48.118;11.600;2023-03-11T01:19:29;4.60;78.40
1830;DHT22;914;48.118;11.600;2023-03-11T01:21:55;4.50;78.20
1830;DHT22;914;48.118;11.600;2023-03-11T01:24:20;4.50;78.20
1830;DHT22;914;48.118;11.600;2023-03-11T01:26:46;4.30;78.50
1830;DHT22;914;48.118;11.600;2023-03-11T01:29:11;4.50;79.10
1830;DHT22;914;48.118;11.600;2023-03-11T01:31:37;4.70;78.10
1830;DHT22;914;48.118;11.600;2023-03-11T01:34:03;4.80;77.90
1830;DHT22;914;48.118;11.600;2023-03-11T01:36:28;4.50;78.00
1830;DHT22;914;48.118;11.600;2023-03-11T01:38:54;4.50;78.80
1830;DHT22;914;48.118;11.600;2023-03-11T01:41:20;4.70;78.30
1830;DHT22;914;48.118;11.600;2023-03-11T01:43:48;4.80;77.20
1830;DHT22;914;48.118;11.600;2023-03-11T01:48:54;4.30;78.40
1830;DHT22;914;48.118;11.600;2023-03-11T01:51:31;4.30;79.10
1830;DHT22;914;48.118;11.600;2023-03-11T01:54:02;4.60;79.40
1830;DHT22;914;48.118;11.600;2023-03-11T01:56:29;4.30;79.10
1830;DHT22;914;48.118;11.600;2023-03-11T01:58:55;4.40;78.30
1830;DHT22;914;48.118;11.600;2023-03-11T02:01:21;4.40;78.10
1830;DHT22;914;48.118;11.600;2023-03-11T02:03:48;4.20;77.90
1830;DHT22;914;48.118;11.600;2023-03-11T02:06:18;4.10;79.10
1830;DHT22;914;48.118;11.600;2023-03-11T02:08:45;4.30;77.70
1830;DHT22;914;48.118;11.600;2023-03-11T02:11:16;4.20;77.80
1830;DHT22;914;48.118;11.600;2023-03-11T02:13:42;4.20;77.80
1830;DHT22;914;48.118;11.600;2023-03-11T02:16:09;3.80;78.40
1830;DHT22;914;48.118;11.600;2023-03-11T02:18:36;4.00;79.40
1830;DHT22;914;48.118;11.600;2023-03-11T02:21:38;4.40;77.80
1830;DHT22;914;48.118;11.600;2023-03-11T02:24:14;4.10;76.80
1830;DHT22;914;48.118;11.600;2023-03-11T02:29:16;3.70;78.10
1830;DHT22;914;48.118;11.600;2023-03-11T02:31:43;3.90;78.30
1830;DHT22;914;48.118;11.600;2023-03-11T02:34:22;4.10;77.70
1830;DHT22;914;48.118;11.600;2023-03-11T02:36:48;4.10;76.70
1830;DHT22;914;48.118;11.600;2023-03-11T02:39:14;3.80;78.40
1830;DHT22;914;48.118;11.600;2023-03-11T02:41:43;4.00;76.80
1830;DHT22;914;48.118;11.600;2023-03-11T02:44:10;3.90;77.40
1830;DHT22;914;48.118;11.600;2023-03-11T02:46:39;4.10;77.30
1830;DHT22;914;48.118;11.600;2023-03-11T02:49:06;4.10;77.20
1830;DHT22;914;48.118;11.600;2023-03-11T02:51:32;4.10;77.70
1830;DHT22;914;48.118;11.600;2023-03-11T02:54:01;4.30;77.10
1830;DHT22;914;48.118;11.600;2023-03-11T02:56:27;4.60;75.80
1830;DHT22;914;48.118;11.600;2023-03-11T02:58:53;4.00;76.40
1830;DHT22;914;48.118;11.600;2023-03-11T03:01:19;4.00;76.60
1830;DHT22;914;48.118;11.600;2023-03-11T03:03:44;4.00;77.20
1830;DHT22;914;48.118;11.600;2023-03-11T03:06:10;4.10;76.50
1830;DHT22;914;48.118;11.600;2023-03-11T03:08:36;4.10;75.00
1830;DHT22;914;48.118;11.600;2023-03-11T03:11:02;3.70;75.80
1830;DHT22;914;48.118;11.600;2023-03-11T03:13:28;3.90;75.80
1830;DHT22;914;48.118;11.600;2023-03-11T03:15:54;3.80;75.90
1830;DHT22;914;48.118;11.600;2023-03-11T03:18:19;3.60;76.30
1830;DHT22;914;48.118;11.600;2023-03-11T03:20:45;3.40;77.10
1830;DHT22;914;48.118;11.600;2023-03-11T03:23:11;3.50;77.00
1830;DHT22;914;48.118;11.600;2023-03-11T03:25:37;3.50;76.80
1830;DHT22;914;48.118;11.600;2023-03-11T03:28:06;3.60;75.90
1830;DHT22;914;48.118;11.600;2023-03-11T03:30:32;3.60;76.60
1830;DHT22;914;48.118;11.600;2023-03-11T03:32:57;3.80;76.00
1830;DHT22;914;48.118;11.600;2023-03-11T03:35:24;3.80;76.00
1830;DHT22;914;48.118;11.600;2023-03-11T03:37:49;3.70;74.80
1830;DHT22;914;48.118;11.600;2023-03-11T03:40:15;3.60;75.40
1830;DHT22;914;48.118;11.600;2023-03-11T03:42:41;3.70;75.60
1830;DHT22;914;48.118;11.600;2023-03-11T03:45:07;3.90;75.60
1830;DHT22;914;48.118;11.600;2023-03-11T03:47:34;3.90;74.40
1830;DHT22;914;48.118;11.600;2023-03-11T03:50:05;3.70;74.90
1830;DHT22;914;48.118;11.600;2023-03-11T03:52:31;3.60;75.40
1830;DHT22;914;48.118;11.600;2023-03-11T03:54:57;3.30;75.30
1830;DHT22;914;48.118;11.600;2023-03-11T03:57:23;3.20;75.70
1830;DHT22;914;48.118;11.600;2023-03-11T03:59:48;3.00;76.80
1830;DHT22;914;48.118;11.600;2023-03-11T04:02:14;3.30;76.40
1830;DHT22;914;48.118;11.600;2023-03-11T04:04:40;3.40;76.20
1830;DHT22;914;48.118;11.600;2023-03-11T04:07:06;3.60;75.00
1830;DHT22;914;48.118;11.600;2023-03-11T04:09:32;3.50;75.00
1830;DHT22;914;48.118;11.600;2023-03-11T04:11:58;3.50;75.30
1830;DHT22;914;48.118;11.600;2023-03-11T04:14:24;3.50;75.10
1830;DHT22;914;48.118;11.600;2023-03-11T04:16:50;3.60;74.90
1830;DHT22;914;48.118;11.600;2023-03-11T04:19:16;3.60;75.40
1830;DHT22;914;48.118;11.600;2023-03-11T04:21:42;3.60;74.40
1830;DHT22;914;48.118;11.600;2023-03-11T04:24:08;3.60;74.70
1830;DHT22;914;48.118;11.600;2023-03-11T04:26:34;4.10;74.60
1830;DHT22;914;48.118;11.600;2023-03-11T04:28:59;3.80;74.20
1830;DHT22;914;48.118;11.600;2023-03-11T04:31:25;3.90;74.80
1830;DHT22;914;48.118;11.600;2023-03-11T04:33:51;3.70;75.10
1830;DHT22;914;48.118;11.600;2023-03-11T04:36:16;3.90;74.50
1830;DHT22;914;48.118;11.600;2023-03-11T04:38:42;3.70;74.40
1830;DHT22;914;48.118;11.600;2023-03-11T04:41:08;3.70;74.70
1830;DHT22;914;48.118;11.600;2023-03-11T04:43:33;3.60;75.00
1830;DHT22;914;48.118;11.600;2023-03-11T04:45:59;3.50;75.50
1830;DHT22;914;48.118;11.600;2023-03-11T04:48:25;3.30;76.20
1830;DHT22;914;48.118;11.600;2023-03-11T04:50:52;3.60;75.70
1830;DHT22;914;48.118;11.600;2023-03-11T04:53:18;3.60;76.20
1830;DHT22;914;48.118;11.600;2023-03-11T04:55:44;3.60;76.20
1830;DHT22;914;48.118;11.600;2023-03-11T04:58:09;3.60;75.70
1830;DHT22;914;48.118;11.600;2023-03-11T05:00:35;3.40;76.40
1830;DHT22;914;48.118;11.600;2023-03-11T05:03:00;3.90;75.70
1830;DHT22;914;48.118;11.600;2023-03-11T05:05:26;4.00;75.10
1830;DHT22;914;48.118;11.600;2023-03-11T05:07:52;4.20;75.20
1830;DHT22;914;48.118;11.600;2023-03-11T05:10:17;4.00;75.20
1830;DHT22;914;48.118;11.600;2023-03-11T05:12:50;3.90;74.90
1830;DHT22;914;48.118;11.600;2023-03-11T05:15:16;3.80;75.40
1830;DHT22;914;48.118;11.600;2023-03-11T05:17:42;3.70;76.20
1830;DHT22;914;48.118;11.600;2023-03-11T05:20:09;3.70;76.00
1830;DHT22;914;48.118;11.600;2023-03-11T05:22:35;3.90;76.70
1830;DHT22;914;48.118;11.600;2023-03-11T05:25:01;3.80;76.70
1830;DHT22;914;48.118;11.600;2023-03-11T05:27:27;3.80;77.00
1830;DHT22;914;48.118;11.600;2023-03-11T05:29:53;3.70;76.90
1830;DHT22;914;48.118;11.600;2023-03-11T05:32:18;4.00;76.40
1830;DHT22;914;48.118;11.600;2023-03-11T05:34:44;4.10;76.90
1830;DHT22;914;48.118;11.600;2023-03-11T05:37:10;3.90;76.40
1830;DHT22;914;48.118;11.600;2023-03-11T05:39:36;3.60;77.60
1830;DHT22;914;48.118;11.600;2023-03-11T05:42:03;3.90;78.00
1830;DHT22;914;48.118;11.600;2023-03-11T05:44:29;3.60;77.90
1830;DHT22;914;48.118;11.600;2023-03-11T05:46:55;3.90;77.90
1830;DHT22;914;48.118;11.600;2023-03-11T05:49:21;3.80;77.80
1830;DHT22;914;48.118;11.600;2023-03-11T05:51:47;3.70;77.90
1830;DHT22;914;48.118;11.600;2023-03-11T05:54:13;4.00;78.10
1830;DHT22;914;48.118;11.600;2023-03-11T05:56:43;4.10;76.50
1830;DHT22;914;48.118;11.600;2023-03-11T05:59:10;4.10;76.40
1830;DHT22;914;48.118;11.600;2023-03-11T06:01:36;3.60;75.50
1830;DHT22;914;48.118;11.600;2023-03-11T06:04:02;3.60;76.30
1830;DHT22;914;48.118;11.600;2023-03-11T06:06:27;3.60;75.20
1830;DHT22;914;48.118;11.600;2023-03-11T06:08:53;3.40;75.00
1830;DHT22;914;48.118;11.600;2023-03-11T06:11:20;3.60;74.90
1830;DHT22;914;48.118;11.600;2023-03-11T06:13:45;3.60;74.10
1830;DHT22;914;48.118;11.600;2023-03-11T06:16:11;3.50;73.60
1830;DHT22;914;48.118;11.600;2023-03-11T06:18:37;3.50;73.30
1830;DHT22;914;48.118;11.600;2023-03-11T06:21:03;3.80;73.50
1830;DHT22;914;48.118;11.600;2023-03-11T06:23:29;3.40;73.40
1830;DHT22;914;48.118;11.600;2023-03-11T06:25:56;3.50;73.10
1830;DHT22;914;48.118;11.600;2023-03-11T06:28:22;3.30;72.80
1830;DHT22;914;48.118;11.600;2023-03-11T06:30:48;3.40;73.40
1830;DHT22;914;48.118;11.600;2023-03-11T06:33:13;3.60;73.30
1830;DHT22;914;48.118;11.600;2023-03-11T06:35:39;3.70;70.40
1830;DHT22;914;48.118;11.600;2023-03-11T06:38:05;3.50;70.90
1830;DHT22;914;48.118;11.600;2023-03-11T06:40:31;3.40;70.50
1830;DHT22;914;48.118;11.600;2023-03-11T06:42:57;3.50;69.70
1830;DHT22;914;48.118;11.600;2023-03-11T06:45:23;3.40;70.20
1830;DHT22;914;48.118;11.600;2023-03-11T06:47:49;3.00;70.10
1830;DHT22;914;48.118;11.600;2023-03-11T06:50:15;3.40;70.30
1830;DHT22;914;48.118;11.600;2023-03-11T06:52:41;3.50;69.30
1830;DHT22;914;48.118;11.600;2023-03-11T06:55:07;3.40;69.10
1830;DHT22;914;48.118;11.600;2023-03-11T06:57:33;3.20;68.90
1830;DHT22;914;48.118;11.600;2023-03-11T06:59:59;3.20;70.50
1830;DHT22;914;48.118;11.600;2023-03-11T07:02:25;3.20;70.70
1830;DHT22;914;48.118;11.600;2023-03-11T07:04:50;3.10;71.20
1830;DHT22;914;48.118;11.600;2023-03-11T07:07:16;3.40;70.80
1830;DHT22;914;48.118;11.600;2023-03-11T07:09:43;3.60;69.40
1830;DHT22;914;48.118;11.600;2023-03-11T07:12:08;3.80;68.70
1830;DHT22;914;48.118;11.600;2023-03-11T07:14:34;3.50;68.10
1830;DHT22;914;48.118;11.600;2023-03-11T07:17:00;3.30;70.10
1830;DHT22;914;48.118;11.600;2023-03-11T07:19:26;3.10;73.10
1830;DHT22;914;48.118;11.600;2023-03-11T07:21:55;3.20;73.00
1830;DHT22;914;48.118;11.600;2023-03-11T07:24:20;3.20;72.80
1830;DHT22;914;48.118;11.600;2023-03-11T07:26:46;3.60;72.90
1830;DHT22;914;48.118;11.600;2023-03-11T07:29:11;3.50;73.00
1830;DHT22;914;48.118;11.600;2023-03-11T07:31:38;3.80;73.20
1830;DHT22;914;48.118;11.600;2023-03-11T07:34:05;3.80;72.60
1830;DHT22;914;48.118;11.600;2023-03-11T07:36:37;3.20;73.30
1830;DHT22;914;48.118;11.600;2023-03-11T07:39:04;3.00;75.40
1830;DHT22;914;48.118;11.600;2023-03-11T07:41:32;2.60;74.20
1830;DHT22;914;48.118;11.600;2023-03-11T07:43:59;3.00;74.90
1830;DHT22;914;48.118;11.600;2023-03-11T07:46:26;3.10;75.40
1830;DHT22;914;48.118;11.600;2023-03-11T07:48:52;3.40;75.00
1830;DHT22;914;48.118;11.600;2023-03-11T07:51:30;3.70;74.50
1830;DHT22;914;48.118;11.600;2023-03-11T07:53:57;3.60;74.10
1830;DHT22;914;48.118;11.600;2023-03-11T07:56:24;3.70;73.60
1830;DHT22;914;48.118;11.600;2023-03-11T07:58:51;4.20;73.70
1830;DHT22;914;48.118;11.600;2023-03-11T08:01:22;4.30;72.60
1830;DHT22;914;48.118;11.600;2023-03-11T08:03:51;4.40;72.20
1830;DHT22;914;48.118;11.600;2023-03-11T08:06:27;4.70;71.10
1830;DHT22;914;48.118;11.600;2023-03-11T08:08:53;4.60;70.10
1830;DHT22;914;48.118;11.600;2023-03-11T08:11:19;4.40;69.50
1830;DHT22;914;48.118;11.600;2023-03-11T08:13:46;4.20;69.90
1830;DHT22;914;48.118;11.600;2023-03-11T08:16:14;3.80;70.30
1830;DHT22;914;48.118;11.600;2023-03-11T08:18:41;4.00;71.40
1830;DHT22;914;48.118;11.600;2023-03-11T08:21:16;4.00;71.10
1830;DHT22;914;48.118;11.600;2023-03-11T08:23:45;4.40;71.10
1830;DHT22;914;48.118;11.600;2023-03-11T08:26:14;4.60;69.90
1830;DHT22;914;48.118;11.600;2023-03-11T08:28:40;4.60;69.20
1830;DHT22;914;48.118;11.600;2023-03-11T08:31:14;4.30;68.70
1830;DHT22;914;48.118;11.600;2023-03-11T08:33:41;4.00;69.50
1830;DHT22;914;48.118;11.600;2023-03-11T08:36:07;4.20;70.60
1830;DHT22;914;48.118;11.600;2023-03-11T08:38:33;4.00;70.60
1830;DHT22;914;48.118;11.600;2023-03-11T08:40:58;4.20;70.10
1830;DHT22;914;48.118;11.600;2023-03-11T08:43:25;4.60;70.00
1830;DHT22;914;48.118;11.600;2023-03-11T08:45:51;4.70;69.70
1830;DHT22;914;48.118;11.600;2023-03-11T08:48:16;4.60;69.80
1830;DHT22;914;48.118;11.600;2023-03-11T08:50:42;4.70;70.00
1830;DHT22;914;48.118;11.600;2023-03-11T08:53:08;4.60;68.70
1830;DHT22;914;48.118;11.600;2023-03-11T08:55:34;4.30;68.60
1830;DHT22;914;48.118;11.600;2023-03-11T08:57:59;4.40;70.10
1830;DHT22;914;48.118;11.600;2023-03-11T09:00:25;4.90;69.30
1830;DHT22;914;48.118;11.600;2023-03-11T09:02:51;4.90;68.50
1830;DHT22;914;48.118;11.600;2023-03-11T09:05:16;5.20;68.30
1830;DHT22;914;48.118;11.600;2023-03-11T09:07:42;5.40;67.20
1830;DHT22;914;48.118;11.600;2023-03-11T09:10:10;5.50;67.00
1830;DHT22;914;48.118;11.600;2023-03-11T09:12:36;5.40;66.10
1830;DHT22;914;48.118;11.600;2023-03-11T09:15:02;5.60;65.50
1830;DHT22;914;48.118;11.600;2023-03-11T09:17:28;5.60;65.10
1830;DHT22;914;48.118;11.600;2023-03-11T09:19:54;5.40;64.70
1830;DHT22;914;48.118;11.600;2023-03-11T09:22:20;5.00;65.70
1830;DHT22;914;48.118;11.600;2023-03-11T09:24:45;4.80;65.30
1830;DHT22;914;48.118;11.600;2023-03-11T09:27:11;4.70;66.00
1830;DHT22;914;48.118;11.600;2023-03-11T09:29:37;4.70;65.50
1830;DHT22;914;48.118;11.600;2023-03-11T09:32:03;4.60;65.90
1830;DHT22;914;48.118;11.600;2023-03-11T09:34:29;4.90;65.50
1830;DHT22;914;48.118;11.600;2023-03-11T09:36:54;5.00;64.90
1830;DHT22;914;48.118;11.600;2023-03-11T09:39:20;5.00;64.40
1830;DHT22;914;48.118;11.600;2023-03-11T09:41:54;5.20;63.20
1830;DHT22;914;48.118;11.600;2023-03-11T09:47:14;5.20;62.20
1830;DHT22;914;48.118;11.600;2023-03-11T09:49:51;4.90;62.30
1830;DHT22;914;48.118;11.600;2023-03-11T09:52:29;5.20;62.60
1830;DHT22;914;48.118;11.600;2023-03-11T09:54:58;5.50;61.20
1830;DHT22;914;48.118;11.600;2023-03-11T09:57:29;5.10;59.40
1830;DHT22;914;48.118;11.600;2023-03-11T09:59:57;5.30;59.90
1830;DHT22;914;48.118;11.600;2023-03-11T10:02:24;4.80;59.80
1830;DHT22;914;48.118;11.600;2023-03-11T10:05:00;5.20;60.80
1830;DHT22;914;48.118;11.600;2023-03-11T10:07:38;5.00;60.10
1830;DHT22;914;48.118;11.600;2023-03-11T10:10:05;5.20;59.70
1830;DHT22;914;48.118;11.600;2023-03-11T10:21:04;5.70;60.30
1830;DHT22;914;48.118;11.600;2023-03-11T10:26:42;5.60;59.30
1830;DHT22;914;48.118;11.600;2023-03-11T10:29:26;6.30;60.20
1830;DHT22;914;48.118;11.600;2023-03-11T10:32:40;6.50;59.40
1830;DHT22;914;48.118;11.600;2023-03-11T10:35:13;6.50;56.90
1830;DHT22;914;48.118;11.600;2023-03-11T10:37:42;6.20;56.80
1830;DHT22;914;48.118;11.600;2023-03-11T10:40:32;6.40;57.70
1830;DHT22;914;48.118;11.600;2023-03-11T10:43:12;6.60;57.40
1830;DHT22;914;48.118;11.600;2023-03-11T10:45:41;6.00;57.10
1830;DHT22;914;48.118;11.600;2023-03-11T10:48:19;6.40;58.10
1830;DHT22;914;48.118;11.600;2023-03-11T10:50:49;6.70;57.40
1830;DHT22;914;48.118;11.600;2023-03-11T10:53:18;6.30;56.70
1830;DHT22;914;48.118;11.600;2023-03-11T10:55:57;6.50;57.80
1830;DHT22;914;48.118;11.600;2023-03-11T10:58:28;6.90;56.80
1830;DHT22;914;48.118;11.600;2023-03-11T11:01:13;6.80;56.20
1830;DHT22;914;48.118;11.600;2023-03-11T11:03:44;6.70;56.50
1830;DHT22;914;48.118;11.600;2023-03-11T11:09:19;7.00;54.90
1830;DHT22;914;48.118;11.600;2023-03-11T11:12:05;6.70;55.30
1830;DHT22;914;48.118;11.600;2023-03-11T11:14:50;6.60;55.70
1830;DHT22;914;48.118;11.600;2023-03-11T11:17:23;6.10;56.20
1830;DHT22;914;48.118;11.600;2023-03-11T11:19:51;6.10;57.60
1830;DHT22;914;48.118;11.600;2023-03-11T11:22:19;6.20;58.10
1830;DHT22;914;48.118;11.600;2023-03-11T11:24:48;6.50;57.40
1830;DHT22;914;48.118;11.600;2023-03-11T11:27:24;7.10;58.20
1830;DHT22;914;48.118;11.600;2023-03-11T11:30:16;7.30;56.50
1830;DHT22;914;48.118;11.600;2023-03-11T11:32:42;7.50;56.40
1830;DHT22;914;48.118;11.600;2023-03-11T11:35:14;7.50;56.70
1830;DHT22;914;48.118;11.600;2023-03-11T11:37:47;7.60;57.30
1830;DHT22;914;48.118;11.600;2023-03-11T11:42:52;9.10;56.10
1830;DHT22;914;48.118;11.600;2023-03-11T11:45:33;8.70;54.60
1830;DHT22;914;48.118;11.600;2023-03-11T11:50:56;7.80;55.70
1830;DHT22;914;48.118;11.600;2023-03-11T11:53:54;8.30;56.10
1830;DHT22;914;48.118;11.600;2023-03-11T11:56:25;8.50;55.50
1830;DHT22;914;48.118;11.600;2023-03-11T11:58:51;9.50;54.00
1830;DHT22;914;48.118;11.600;2023-03-11T12:06:59;10.70;50.90
1830;DHT22;914;48.118;11.600;2023-03-11T12:12:31;11.60;49.70
1830;DHT22;914;48.118;11.600;2023-03-11T12:15:18;12.60;49.40
1830;DHT22;914;48.118;11.600;2023-03-11T12:17:46;13.00;49.10
1830;DHT22;914;48.118;11.600;2023-03-11T12:20:17;12.70;48.80
1830;DHT22;914;48.118;11.600;2023-03-11T12:22:53;12.90;49.00
1830;DHT22;914;48.118;11.600;2023-03-11T12:25:53;12.10;46.30
1830;DHT22;914;48.118;11.600;2023-03-11T12:28:49;11.70;47.70
1830;DHT22;914;48.118;11.600;2023-03-11T12:31:12;11.70;48.20
1830;DHT22;914;48.118;11.600;2023-03-11T12:36:24;11.60;47.40
1830;DHT22;914;48.118;11.600;2023-03-11T12:38:52;10.40;49.50
1830;DHT22;914;48.118;11.600;2023-03-11T12:41:29;10.20;50.40
1830;DHT22;914;48.118;11.600;2023-03-11T12:43:58;10.50;50.00
1830;DHT22;914;48.118;11.600;2023-03-11T12:49:34;10.80;50.10
1830;DHT22;914;48.118;11.600;2023-03-11T13:08:28;11.50;50.00
1830;DHT22;914;48.118;11.600;2023-03-11T13:10:56;11.60;49.70
1830;DHT22;914;48.118;11.600;2023-03-11T13:15:57;12.20;48.70
1830;DHT22;914;48.118;11.600;2023-03-11T13:18:44;12.80;48.30
1830;DHT22;914;48.118;11.600;2023-03-11T13:38:10;10.00;50.90
1830;DHT22;914;48.118;11.600;2023-03-11T13:40:43;10.20;50.40
1830;DHT22;914;48.118;11.600;2023-03-11T13:43:20;9.90;50.30
1830;DHT22;914;48.118;11.600;2023-03-11T13:48:25;9.70;52.50
1830;DHT22;914;48.118;11.600;2023-03-11T13:53:33;9.10;54.60
1830;DHT22;914;48.118;11.600;2023-03-11T13:56:00;9.80;53.10
1830;DHT22;914;48.118;11.600;2023-03-11T13:58:27;10.60;51.70
1830;DHT22;914;48.118;11.600;2023-03-11T14:00:58;9.60;52.60
1830;DHT22;914;48.118;11.600;2023-03-11T14:03:26;9.30;53.00
1830;DHT22;914;48.118;11.600;2023-03-11T14:05:59;9.80;51.90
1830;DHT22;914;48.118;11.600;2023-03-11T14:08:33;9.60;51.80
1830;DHT22;914;48.118;11.600;2023-03-11T14:13:46;10.00;51.10
1830;DHT22;914;48.118;11.600;2023-03-11T14:16:21;9.80;53.20
1830;DHT22;914;48.118;11.600;2023-03-11T14:21:29;10.70;50.00
1830;DHT22;914;48.118;11.600;2023-03-11T14:23:58;9.80;50.60
1830;DHT22;914;48.118;11.600;2023-03-11T14:26:33;9.70;52.20
1830;DHT22;914;48.118;11.600;2023-03-11T14:29:05;8.90;52.70
1830;DHT22;914;48.118;11.600;2023-03-11T14:31:34;9.40;53.60
1830;DHT22;914;48.118;11.600;2023-03-11T14:34:02;9.00;52.20
1830;DHT22;914;48.118;11.600;2023-03-11T14:36:45;9.00;53.00
1830;DHT22;914;48.118;11.600;2023-03-11T14:39:34;9.40;52.80
1830;DHT22;914;48.118;11.600;2023-03-11T14:42:21;9.60;52.60
1830;DHT22;914;48.118;11.600;2023-03-11T14:50:23;9.40;52.80
1830;DHT22;914;48.118;11.600;2023-03-11T14:53:04;9.50;51.80
1830;DHT22;914;48.118;11.600;2023-03-11T14:55:36;9.50;52.10
1830;DHT22;914;48.118;11.600;2023-03-11T14:58:06;9.30;53.30
1830;DHT22;914;48.118;11.600;2023-03-11T15:06:28;8.90;52.80
1830;DHT22;914;48.118;11.600;2023-03-11T15:11:56;9.30;52.30
1830;DHT22;914;48.118;11.600;2023-03-11T15:14:30;9.10;52.10
1830;DHT22;914;48.118;11.600;2023-03-11T15:19:34;8.90;53.70
1830;DHT22;914;48.118;11.600;2023-03-11T15:22:26;8.70;53.10
1830;DHT22;914;48.118;11.600;2023-03-11T15:24:57;8.10;53.50
1830;DHT22;914;48.118;11.600;2023-03-11T15:29:58;7.70;55.00
1830;DHT22;914;48.118;11.600;2023-03-11T15:37:40;8.30;55.00
1830;DHT22;914;48.118;11.600;2023-03-11T15:42:36;8.40;53.60
1830;DHT22;914;48.118;11.600;2023-03-11T15:47:40;7.40;55.80
1830;DHT22;914;48.118;11.600;2023-03-11T15:50:17;7.20;56.70
1830;DHT22;914;48.118;11.600;2023-03-11T15:52:44;7.50;56.50
1830;DHT22;914;48.118;11.600;2023-03-11T15:55:11;7.60;56.70
1830;DHT22;914;48.118;11.600;2023-03-11T15:57:38;7.50;57.30
1830;DHT22;914;48.118;11.600;2023-03-11T16:00:17;7.50;57.60
1830;DHT22;914;48.118;11.600;2023-03-11T16:02:44;6.90;57.80
1830;DHT22;914;48.118;11.600;2023-03-11T16:05:18;7.00;58.30
1830;DHT22;914;48.118;11.600;2023-03-11T16:07:44;7.50;58.50
1830;DHT22;914;48.118;11.600;2023-03-11T16:10:12;6.90;58.10
1830;DHT22;914;48.118;11.600;2023-03-11T16:12:38;6.90;58.20
1830;DHT22;914;48.118;11.600;2023-03-11T16:15:05;6.90;58.00
1830;DHT22;914;48.118;11.600;2023-03-11T16:17:31;7.00;58.00
1830;DHT22;914;48.118;11.600;2023-03-11T16:19:56;7.00;58.50
1830;DHT22;914;48.118;11.600;2023-03-11T16:22:40;7.00;58.30
1830;DHT22;914;48.118;11.600;2023-03-11T16:25:12;6.80;58.20
1830;DHT22;914;48.118;11.600;2023-03-11T16:27:39;6.80;58.20
1830;DHT22;914;48.118;11.600;2023-03-11T16:30:05;6.90;58.10
1830;DHT22;914;48.118;11.600;2023-03-11T16:32:31;7.10;58.70
1830;DHT22;914;48.118;11.600;2023-03-11T16:34:57;6.80;58.90
1830;DHT22;914;48.118;11.600;2023-03-11T16:37:22;6.80;59.00
1830;DHT22;914;48.118;11.600;2023-03-11T16:39:48;6.30;59.10
1830;DHT22;914;48.118;11.600;2023-03-11T16:42:20;6.20;60.10
1830;DHT22;914;48.118;11.600;2023-03-11T16:44:47;6.00;60.30
1830;DHT22;914;48.118;11.600;2023-03-11T16:47:13;5.80;60.60
1830;DHT22;914;48.118;11.600;2023-03-11T16:49:38;5.90;60.90
1830;DHT22;914;48.118;11.600;2023-03-11T16:52:06;5.60;61.70
1830;DHT22;914;48.118;11.600;2023-03-11T16:54:31;6.00;61.70
1830;DHT22;914;48.118;11.600;2023-03-11T16:57:00;6.20;60.90
1830;DHT22;914;48.118;11.600;2023-03-11T16:59:27;6.00;60.00
1830;DHT22;914;48.118;11.600;2023-03-11T17:01:53;6.00;60.20
1830;DHT22;914;48.118;11.600;2023-03-11T17:04:19;5.70;60.70
1830;DHT22;914;48.118;11.600;2023-03-11T17:06:45;5.90;60.80
1830;DHT22;914;48.118;11.600;2023-03-11T17:09:11;5.70;60.70
1830;DHT22;914;48.118;11.600;2023-03-11T17:11:36;5.80;61.00
1830;DHT22;914;48.118;11.600;2023-03-11T17:14:02;5.90;61.00
1830;DHT22;914;48.118;11.600;2023-03-11T17:16:28;6.20;59.80
1830;DHT22;914;48.118;11.600;2023-03-11T17:18:54;5.80;61.00
1830;DHT22;914;48.118;11.600;2023-03-11T17:21:20;5.80;60.60
1830;DHT22;914;48.118;11.600;2023-03-11T17:23:46;5.80;60.90
1830;DHT22;914;48.118;11.600;2023-03-11T17:26:15;5.80;61.20
1830;DHT22;914;48.118;11.600;2023-03-11T17:28:41;5.60;61.00
1830;DHT22;914;48.118;11.600;2023-03-11T17:31:14;5.30;61.80
1830;DHT22;914;48.118;11.600;2023-03-11T17:33:41;5.60;61.40
1830;DHT22;914;48.118;11.600;2023-03-11T17:36:09;5.60;61.20
1830;DHT22;914;48.118;11.600;2023-03-11T17:38:35;5.60;61.60
1830;DHT22;914;48.118;11.600;2023-03-11T17:41:06;5.30;61.10
1830;DHT22;914;48.118;11.600;2023-03-11T17:43:34;5.30;62.50
1830;DHT22;914;48.118;11.600;2023-03-11T17:46:10;5.30;61.70
1830;DHT22;914;48.118;11.600;2023-03-11T17:48:39;5.50;61.50
1830;DHT22;914;48.118;11.600;2023-03-11T17:51:10;5.50;61.00
1830;DHT22;914;48.118;11.600;2023-03-11T17:53:37;5.50;60.70
1830;DHT22;914;48.118;11.600;2023-03-11T17:56:05;5.70;61.70
1830;DHT22;914;48.118;11.600;2023-03-11T17:58:31;5.70;60.80
1830;DHT22;914;48.118;11.600;2023-03-11T18:00:57;5.50;61.10
1830;DHT22;914;48.118;11.600;2023-03-11T18:03:24;5.30;61.10
1830;DHT22;914;48.118;11.600;2023-03-11T18:06:00;5.60;61.30
1830;DHT22;914;48.118;11.600;2023-03-11T18:08:27;5.60;61.60
1830;DHT22;914;48.118;11.600;2023-03-11T18:10:54;5.00;61.10
1830;DHT22;914;48.118;11.600;2023-03-11T18:13:22;4.80;62.60
1830;DHT22;914;48.118;11.600;2023-03-11T18:15:56;5.20;63.50
1830;DHT22;914;48.118;11.600;2023-03-11T18:18:22;5.40;61.10
1830;DHT22;914;48.118;11.600;2023-03-11T18:20:47;5.20;62.10
1830;DHT22;914;48.118;11.600;2023-03-11T18:23:13;5.40;60.90
1830;DHT22;914;48.118;11.600;2023-03-11T18:25:39;5.20;60.80